createdAt,value
2022-08-07T00:00:49.506Z,89.13
2022-08-07T00:03:52.301Z,89.23
2022-08-07T00:06:57.042Z,89.33
2022-08-07T00:10:26.661Z,89.45
2022-08-07T00:13:26.948Z,89.50
2022-08-07T00:16:29.168Z,89.54
2022-08-07T00:20:00.360Z,89.76
2022-08-07T00:22:54.020Z,89.74
2022-08-07T00:26:00.629Z,89.85
2022-08-07T00:29:06.132Z,89.96
2022-08-07T00:32:07.999Z,89.97
2022-08-07T00:35:10.086Z,90.05
2022-08-07T00:38:11.917Z,90.29
2022-08-07T00:41:15.287Z,90.35
2022-08-07T00:44:17.545Z,90.39
2022-08-07T00:48:08.782Z,90.31
2022-08-07T00:50:50.887Z,90.33
2022-08-07T00:53:55.266Z,90.38
2022-08-07T00:56:58.030Z,90.30
2022-08-07T01:00:00.038Z,90.41
2022-08-07T01:03:01.852Z,90.46
2022-08-07T01:06:03.743Z,90.73
2022-08-07T01:09:05.683Z,90.79
2022-08-07T01:12:30.288Z,90.90
2022-08-07T01:16:01.086Z,90.93
2022-08-07T01:18:54.524Z,90.94
2022-08-07T01:21:56.665Z,90.81
2022-08-07T01:24:59.078Z,90.79
2022-08-07T01:28:00.840Z,91.01
2022-08-07T01:31:03.077Z,91.10
2022-08-07T01:34:08.141Z,91.29
2022-08-07T01:37:13.912Z,91.14
2022-08-07T01:40:20.372Z,91.20
2022-08-07T01:43:22.380Z,91.39
2022-08-07T01:46:27.762Z,91.37
2022-08-07T01:49:29.610Z,91.45
2022-08-07T01:52:35.562Z,91.56
2022-08-07T01:55:40.270Z,91.72
2022-08-07T01:58:53.147Z,91.76
2022-08-07T02:02:04.057Z,91.82
2022-08-07T02:05:16.096Z,91.86
2022-08-07T02:08:35.564Z,91.89
2022-08-07T02:12:02.928Z,91.88
2022-08-07T02:15:06.950Z,92.06
2022-08-07T02:18:13.197Z,91.92
2022-08-07T02:21:16.307Z,92.01
2022-08-07T02:24:19.044Z,92.09
2022-08-07T02:27:23.599Z,92.17
2022-08-07T02:30:26.469Z,92.20
2022-08-07T02:33:33.067Z,92.29
2022-08-07T02:36:52.045Z,92.27
2022-08-07T02:40:02.044Z,92.24
2022-08-07T02:43:16.828Z,92.39
2022-08-07T02:46:21.834Z,92.49
2022-08-07T02:49:58.492Z,92.45
2022-08-07T02:53:00.842Z,92.49
2022-08-07T02:56:13.146Z,92.50
2022-08-07T02:59:27.651Z,92.46
2022-08-07T03:02:29.881Z,92.55
2022-08-07T03:05:35.889Z,92.48
2022-08-07T03:08:39.198Z,92.56
2022-08-07T03:11:52.500Z,92.47
2022-08-07T03:15:02.446Z,92.55
2022-08-07T03:18:09.689Z,92.59
2022-08-07T03:21:19.409Z,92.69
2022-08-07T03:24:26.689Z,92.73
2022-08-07T03:28:09.843Z,92.74
2022-08-07T03:31:12.492Z,92.88
2022-08-07T03:34:18.922Z,93.11
2022-08-07T03:37:27.707Z,93.10
2022-08-07T03:40:31.010Z,93.03
2022-08-07T03:43:38.895Z,93.08
2022-08-07T03:47:10.716Z,93.26
2022-08-07T03:50:10.603Z,93.23
2022-08-07T03:53:12.709Z,93.38
2022-08-07T03:56:32.812Z,93.16
2022-08-07T03:59:36.543Z,92.84
2022-08-07T04:02:49.466Z,92.84
2022-08-07T04:05:51.588Z,92.92
2022-08-07T04:09:01.988Z,93.03
2022-08-07T04:12:27.462Z,93.17
2022-08-07T04:15:27.655Z,93.38
2022-08-07T04:18:57.612Z,93.46
2022-08-07T04:21:59.030Z,93.46
2022-08-07T04:25:02.459Z,93.42
2022-08-07T04:28:08.100Z,93.63
2022-08-07T04:31:20.093Z,93.49
2022-08-07T04:34:24.259Z,93.50
2022-08-07T04:37:40.327Z,93.59
2022-08-07T04:40:57.490Z,93.62
2022-08-07T04:44:14.561Z,93.69
2022-08-07T04:47:57.150Z,93.68
2022-08-07T04:51:32.002Z,93.72
2022-08-07T04:54:36.988Z,93.85
2022-08-07T04:58:12.437Z,93.58
2022-08-07T05:01:39.502Z,93.70
2022-08-07T05:05:51.855Z,93.69
2022-08-07T05:09:01.063Z,93.35
2022-08-07T05:12:05.532Z,93.16
2022-08-07T05:15:23.255Z,93.22
2022-08-07T05:18:29.608Z,92.90
2022-08-07T05:22:00.612Z,92.86
2022-08-07T05:24:57.249Z,92.80
2022-08-07T05:28:20.675Z,92.57
2022-08-07T05:31:35.270Z,92.41
2022-08-07T05:34:40.880Z,92.08
2022-08-07T05:37:43.800Z,91.75
2022-08-07T05:40:51.449Z,91.79
2022-08-07T05:44:08.073Z,91.86
2022-08-07T05:47:18.609Z,91.63
2022-08-07T05:50:22.185Z,91.62
2022-08-07T05:54:12.901Z,91.51
2022-08-07T05:56:47.815Z,91.33
2022-08-07T05:59:55.843Z,91.28
2022-08-07T06:03:00.868Z,91.08
2022-08-07T06:06:03.070Z,91.05
2022-08-07T06:09:05.552Z,90.92
2022-08-07T06:12:08.299Z,90.81
2022-08-07T06:15:16.059Z,90.85
2022-08-07T06:18:18.470Z,91.02
2022-08-07T06:22:15.469Z,91.06
2022-08-07T06:24:53.493Z,90.69
2022-08-07T06:28:06.909Z,90.76
2022-08-07T06:31:10.177Z,90.51
2022-08-07T06:34:12.792Z,90.69
2022-08-07T06:37:17.024Z,90.50
2022-08-07T06:40:21.359Z,90.95
2022-08-07T06:43:24.945Z,91.44
2022-08-07T06:46:35.024Z,91.05
2022-08-07T06:49:51.209Z,90.68
2022-08-07T06:52:55.946Z,90.25
2022-08-07T06:56:01.219Z,90.88
2022-08-07T07:00:12.664Z,91.06
2022-08-07T07:02:54.444Z,90.57
2022-08-07T07:06:04.355Z,89.79
2022-08-07T07:09:19.114Z,88.92
2022-08-07T07:12:33.625Z,88.46
2022-08-07T07:15:43.239Z,89.19
2022-08-07T07:18:50.944Z,88.95
2022-08-07T07:22:12.065Z,87.86
2022-08-07T07:26:33.376Z,87.91
2022-08-07T07:29:40.048Z,88.04
2022-08-07T07:32:08.878Z,87.39
2022-08-07T07:35:12.414Z,87.65
2022-08-07T07:38:14.437Z,87.29
2022-08-07T07:41:18.183Z,86.30
2022-08-07T07:44:26.692Z,85.67
2022-08-07T07:47:29.698Z,84.56
2022-08-07T07:50:39.035Z,83.34
2022-08-07T07:53:51.954Z,83.77
2022-08-07T07:56:57.417Z,84.26
2022-08-07T08:00:01.007Z,85.00
2022-08-07T08:03:16.798Z,84.57
2022-08-07T08:06:34.298Z,84.88
2022-08-07T08:09:52.225Z,84.37
2022-08-07T08:13:03.059Z,83.11
2022-08-07T08:16:06.131Z,82.00
2022-08-07T08:20:15.871Z,82.32
2022-08-07T08:22:58.897Z,82.71
2022-08-07T08:26:22.314Z,82.46
2022-08-07T08:29:27.667Z,80.22
2022-08-07T08:32:41.346Z,78.77
2022-08-07T08:35:50.989Z,80.27
2022-08-07T08:38:54.465Z,80.30
2022-08-07T08:42:10.282Z,79.35
2022-08-07T08:45:41.917Z,79.65
2022-08-07T08:48:58.251Z,79.13
2022-08-07T08:52:16.727Z,78.31
2022-08-07T08:55:54.276Z,77.64
2022-08-07T08:59:16.433Z,76.38
2022-08-07T09:02:37.520Z,75.80
2022-08-07T09:05:54.607Z,74.53
2022-08-07T09:09:13.422Z,75.03
2022-08-07T09:12:43.127Z,75.32
2022-08-07T09:16:25.603Z,74.94
2022-08-07T09:19:52.601Z,73.15
2022-08-07T09:24:34.203Z,72.38
2022-08-07T09:27:08.993Z,70.28
2022-08-07T09:30:14.119Z,70.27
2022-08-07T09:33:52.573Z,72.04
2022-08-07T09:37:05.017Z,71.66
2022-08-07T09:40:17.905Z,71.90
2022-08-07T09:44:05.569Z,71.75
2022-08-07T09:47:51.687Z,68.98
2022-08-07T09:51:02.217Z,68.22
2022-08-07T09:54:07.215Z,68.83
2022-08-07T09:57:22.434Z,68.20
2022-08-07T10:00:32.762Z,69.87
2022-08-07T10:04:05.660Z,70.68
2022-08-07T10:07:53.538Z,68.91
2022-08-07T10:11:59.918Z,68.76
2022-08-07T10:14:55.197Z,66.26
2022-08-07T10:18:14.162Z,66.39
2022-08-07T10:22:15.036Z,67.09
2022-08-07T10:25:43.234Z,67.65
2022-08-07T10:29:16.679Z,64.64
2022-08-07T10:32:53.108Z,64.83
2022-08-07T10:36:29.474Z,64.31
2022-08-07T10:40:02.850Z,63.60
2022-08-07T10:43:15.785Z,62.93
2022-08-07T10:46:26.409Z,61.30
2022-08-07T10:49:49.485Z,62.42
2022-08-07T10:53:22.601Z,63.20
2022-08-07T10:56:43.231Z,63.18
2022-08-07T10:59:59.326Z,62.61
2022-08-07T11:03:37.808Z,62.95
2022-08-07T11:07:14.983Z,62.16
2022-08-07T11:10:40.256Z,61.45
2022-08-07T11:14:46.243Z,62.43
2022-08-07T11:17:43.235Z,61.90
2022-08-07T11:20:55.955Z,62.19
2022-08-07T11:24:04.104Z,61.69
2022-08-07T11:28:02.585Z,61.65
2022-08-07T11:31:08.818Z,61.31
2022-08-07T11:34:28.982Z,61.84
2022-08-07T11:37:58.001Z,63.53
2022-08-07T11:41:22.088Z,62.35
2022-08-07T11:44:59.309Z,60.61
2022-08-07T11:48:37.578Z,58.86
2022-08-07T11:52:00.920Z,57.86
2022-08-07T11:56:11.915Z,58.76
2022-08-07T12:00:11.340Z,59.78
2022-08-07T12:03:41.403Z,59.46
2022-08-07T12:07:03.003Z,57.83
2022-08-07T12:10:18.605Z,57.77
2022-08-07T12:13:45.018Z,58.41
2022-08-07T12:17:30.336Z,57.93
2022-08-07T12:20:38.580Z,57.49
2022-08-07T12:24:06.083Z,57.72
2022-08-07T12:27:16.368Z,58.07
2022-08-07T12:30:19.563Z,58.55
2022-08-07T12:33:31.058Z,57.97
2022-08-07T12:36:51.752Z,58.18
2022-08-07T12:39:55.532Z,58.63
2022-08-07T12:43:02.126Z,57.99
2022-08-07T12:46:26.312Z,57.88
2022-08-07T12:49:52.998Z,58.08
2022-08-07T12:53:19.293Z,57.93
2022-08-07T12:56:40.264Z,57.23
2022-08-07T12:59:55.030Z,57.50
2022-08-07T13:03:13.064Z,58.10
2022-08-07T13:07:00.957Z,55.22
2022-08-07T13:10:39.355Z,55.03
2022-08-07T13:14:03.750Z,55.56
2022-08-07T13:17:41.150Z,54.74
2022-08-07T13:20:46.762Z,54.99
2022-08-07T13:24:11.473Z,55.10
2022-08-07T13:27:20.592Z,55.23
2022-08-07T13:30:41.093Z,55.25
2022-08-07T13:34:34.443Z,55.26
2022-08-07T13:37:58.697Z,55.36
2022-08-07T13:41:41.431Z,55.32
2022-08-07T13:44:45.174Z,54.80
2022-08-07T13:48:10.519Z,53.91
2022-08-07T13:51:28.561Z,53.14
2022-08-07T13:54:49.353Z,53.22
2022-08-07T13:58:27.821Z,52.28
2022-08-07T14:01:50.837Z,51.05
2022-08-07T14:05:10.304Z,51.90
2022-08-07T14:08:13.153Z,51.32
2022-08-07T14:11:18.954Z,50.39
2022-08-07T14:14:33.429Z,49.38
2022-08-07T14:18:15.800Z,48.38
2022-08-07T14:22:00.554Z,47.54
2022-08-07T14:24:41.209Z,46.28
2022-08-07T14:28:11.801Z,46.63
2022-08-07T14:31:08.464Z,46.02
2022-08-07T14:34:12.305Z,46.74
2022-08-07T14:37:36.272Z,46.39
2022-08-07T14:40:43.012Z,46.10
2022-08-07T14:47:17.389Z,44.97
2022-08-07T14:50:22.739Z,44.45
2022-08-07T14:54:03.783Z,43.88
2022-08-07T14:56:52.336Z,43.44
2022-08-07T15:00:03.452Z,43.34
2022-08-07T15:03:18.917Z,43.22
2022-08-07T15:06:25.454Z,42.93
2022-08-07T15:09:58.511Z,43.18
2022-08-07T15:16:30.953Z,42.64
2022-08-07T15:20:30.406Z,43.09
2022-08-07T15:23:00.694Z,43.62
2022-08-07T15:26:28.838Z,44.01
2022-08-07T15:30:06.580Z,44.14
2022-08-07T15:33:04.171Z,44.34
2022-08-07T15:36:08.402Z,44.42
2022-08-07T15:39:12.437Z,44.55
2022-08-07T15:42:47.836Z,44.40
2022-08-07T15:45:55.420Z,44.51
2022-08-07T15:49:11.714Z,44.03
2022-08-07T15:52:21.024Z,43.80
2022-08-07T15:55:53.970Z,44.09
2022-08-07T15:58:55.302Z,44.37
2022-08-07T16:02:01.840Z,44.47
2022-08-07T16:05:15.104Z,44.51
2022-08-07T16:08:30.421Z,44.62
2022-08-07T16:12:01.472Z,44.70
2022-08-07T16:15:57.247Z,44.96
2022-08-07T16:19:16.987Z,44.98
2022-08-07T16:22:54.559Z,45.21
2022-08-07T16:26:30.639Z,45.19
2022-08-07T16:30:09.621Z,45.37
2022-08-07T16:34:01.599Z,45.59
2022-08-07T16:37:02.454Z,45.89
2022-08-07T16:40:36.279Z,46.04
2022-08-07T16:44:57.217Z,45.86
2022-08-07T16:48:15.327Z,46.10
2022-08-07T16:51:54.560Z,46.26
2022-08-07T16:55:08.494Z,46.39
2022-08-07T16:58:54.255Z,46.65
2022-08-07T17:02:03.110Z,46.79
2022-08-07T17:06:19.975Z,47.02
2022-08-07T17:09:09.192Z,47.26
2022-08-07T17:12:36.762Z,47.36
2022-08-07T17:15:50.739Z,47.63
2022-08-07T17:19:01.716Z,47.86
2022-08-07T17:22:10.857Z,47.98
2022-08-07T17:25:47.837Z,48.11
2022-08-07T17:28:52.128Z,48.25
2022-08-07T17:32:03.924Z,48.43
2022-08-07T17:35:50.502Z,48.77
2022-08-07T17:39:01.096Z,49.04
2022-08-07T17:42:06.793Z,49.45
2022-08-07T17:45:14.904Z,49.80
2022-08-07T17:49:09.489Z,50.18
2022-08-07T17:52:30.643Z,51.08
2022-08-07T17:55:55.765Z,51.59
2022-08-07T17:59:16.998Z,52.09
2022-08-07T18:02:56.473Z,52.43
2022-08-07T18:06:06.587Z,52.86
2022-08-07T18:10:05.316Z,53.27
2022-08-07T18:13:15.348Z,53.79
2022-08-07T18:16:32.615Z,54.07
2022-08-07T18:21:07.068Z,54.36
2022-08-07T18:23:42.239Z,54.83
2022-08-07T18:26:54.651Z,55.11
2022-08-07T18:30:31.429Z,55.38
2022-08-07T18:34:06.774Z,55.76
2022-08-07T18:38:58.894Z,56.29
2022-08-07T18:41:10.195Z,56.45
2022-08-07T18:45:40.094Z,56.84
2022-08-07T18:49:03.598Z,57.19
2022-08-07T18:52:40.933Z,57.62
2022-08-07T18:56:31.606Z,58.01
2022-08-07T18:59:47.650Z,58.54
2022-08-07T19:03:11.833Z,58.87
2022-08-07T19:06:18.040Z,59.23
2022-08-07T19:09:56.689Z,59.22
2022-08-07T19:13:21.643Z,59.77
2022-08-07T19:17:06.001Z,60.02
2022-08-07T19:20:24.996Z,60.21
2022-08-07T19:23:59.232Z,60.51
2022-08-07T19:28:57.379Z,60.87
2022-08-07T19:31:01.644Z,61.07
2022-08-07T19:33:58.411Z,61.35
2022-08-07T19:37:09.628Z,61.68
2022-08-07T19:40:18.763Z,61.98
2022-08-07T19:43:46.093Z,62.27
2022-08-07T19:46:57.733Z,62.36
2022-08-07T19:50:41.399Z,62.61
2022-08-07T19:54:34.267Z,62.85
2022-08-07T19:58:00.654Z,63.13
2022-08-07T20:00:28.403Z,63.33
2022-08-07T20:03:35.646Z,63.71
2022-08-07T20:06:43.046Z,63.79
2022-08-07T20:10:35.219Z,64.12
2022-08-07T20:13:23.931Z,64.29
2022-08-07T20:16:35.868Z,64.50
2022-08-07T20:19:47.950Z,64.75
2022-08-07T20:23:23.219Z,65.13
2022-08-07T20:26:45.104Z,65.48
2022-08-07T20:29:59.230Z,65.87
2022-08-07T20:33:05.280Z,66.19
2022-08-07T20:36:13.235Z,66.57
2022-08-07T20:40:02.178Z,66.96
2022-08-07T20:42:56.157Z,67.34
2022-08-07T20:46:27.190Z,67.62
2022-08-07T20:50:01.250Z,68.03
2022-08-07T20:52:52.092Z,68.35
2022-08-07T20:55:59.035Z,68.54
2022-08-07T20:59:05.421Z,68.72
2022-08-07T21:02:38.339Z,68.74
2022-08-07T21:05:56.535Z,69.11
2022-08-07T21:09:14.151Z,69.31
2022-08-07T21:12:28.615Z,69.72
2022-08-07T21:15:48.140Z,70.13
2022-08-07T21:18:57.934Z,70.64
2022-08-07T21:22:04.602Z,71.05
2022-08-07T21:25:17.955Z,71.24
2022-08-07T21:28:49.325Z,71.24
2022-08-07T21:32:43.698Z,71.67
2022-08-07T21:36:05.766Z,71.95
2022-08-07T21:39:45.223Z,72.03
2022-08-07T21:42:51.274Z,72.09
2022-08-07T21:46:11.027Z,72.37
2022-08-07T21:50:01.056Z,72.84
2022-08-07T21:53:24.937Z,72.81
2022-08-07T21:56:37.701Z,72.95
2022-08-07T22:00:05.144Z,73.11
2022-08-07T22:03:36.899Z,73.35
2022-08-07T22:06:49.725Z,73.42
2022-08-07T22:09:57.428Z,73.53
2022-08-07T22:13:09.434Z,73.54
2022-08-07T22:16:38.768Z,73.63
2022-08-07T22:20:07.008Z,73.66
2022-08-07T22:23:17.854Z,73.97
2022-08-07T22:27:01.735Z,74.15
2022-08-07T22:30:12.528Z,74.19
2022-08-07T22:33:17.007Z,74.36
2022-08-07T22:36:46.420Z,74.53
2022-08-07T22:40:10.846Z,75.09
2022-08-07T22:43:16.762Z,75.06
2022-08-07T22:47:04.377Z,75.40
2022-08-07T22:50:40.121Z,75.34
2022-08-07T22:54:07.423Z,75.62
2022-08-07T22:57:33.780Z,75.69
2022-08-07T23:00:58.223Z,75.74
2022-08-07T23:04:19.995Z,76.14
2022-08-07T23:07:45.975Z,75.99
2022-08-07T23:10:53.510Z,76.20
2022-08-07T23:14:16.134Z,76.47
2022-08-07T23:17:41.753Z,76.53
2022-08-07T23:21:30.462Z,76.50
2022-08-07T23:24:56.253Z,76.89
2022-08-07T23:28:35.205Z,76.69
2022-08-07T23:34:20.231Z,77.00
2022-08-07T23:35:23.945Z,77.20
2022-08-07T23:39:08.604Z,77.39
2022-08-07T23:42:30.413Z,77.54
2022-08-07T23:46:02.830Z,77.65
2022-08-07T23:49:42.108Z,78.15
2022-08-07T23:53:16.794Z,77.84
2022-08-07T23:56:53.539Z,78.09
